sensor_id;sensor_type;location;lat;lon;timestamp;P1;durP1;ratioP1;P2;durP2;ratioP2
20559;SDS011;10438;51.454;6.718;2022-12-18T00:01:47;17.53;;;7.80;;
20559;SDS011;10438;51.454;6.718;2022-12-18T00:04:23;18.27;;;7.97;;
20559;SDS011;10438;51.454;6.718;2022-12-18T00:06:50;17.23;;;7.90;;
20559;SDS011;10438;51.454;6.718;2022-12-18T00:09:16;15.50;;;7.77;;
20559;SDS011;10438;51.454;6.718;2022-12-18T00:11:42;19.53;;;8.70;;
20559;SDS011;10438;51.454;6.718;2022-12-18T00:14:08;17.07;;;7.70;;
20559;SDS011;10438;51.454;6.718;2022-12-18T00:16:35;17.03;;;7.57;;
20559;SDS011;10438;51.454;6.718;2022-12-18T00:19:02;16.73;;;7.20;;
20559;SDS011;10438;51.454;6.718;2022-12-18T00:21:28;15.10;;;6.80;;
20559;SDS011;10438;51.454;6.718;2022-12-18T00:23:54;16.97;;;7.97;;
20559;SDS011;10438;51.454;6.718;2022-12-18T00:26:21;16.83;;;7.73;;
20559;SDS011;10438;51.454;6.718;2022-12-18T00:28:49;15.47;;;7.60;;
20559;SDS011;10438;51.454;6.718;2022-12-18T00:31:17;14.23;;;6.90;;
20559;SDS011;10438;51.454;6.718;2022-12-18T00:33:45;16.73;;;7.40;;
20559;SDS011;10438;51.454;6.718;2022-12-18T00:36:12;15.03;;;7.43;;
20559;SDS011;10438;51.454;6.718;2022-12-18T00:38:40;16.43;;;7.47;;
20559;SDS011;10438;51.454;6.718;2022-12-18T00:41:06;15.97;;;7.13;;
20559;SDS011;10438;51.454;6.718;2022-12-18T00:43:33;15.07;;;7.10;;
20559;SDS011;10438;51.454;6.718;2022-12-18T00:45:59;14.07;;;6.57;;
20559;SDS011;10438;51.454;6.718;2022-12-18T00:48:24;14.50;;;6.57;;
20559;SDS011;10438;51.454;6.718;2022-12-18T00:50:50;15.80;;;7.43;;
20559;SDS011;10438;51.454;6.718;2022-12-18T00:53:16;13.20;;;6.63;;
20559;SDS011;10438;51.454;6.718;2022-12-18T00:55:42;15.10;;;6.83;;
20559;SDS011;10438;51.454;6.718;2022-12-18T00:58:08;13.53;;;6.70;;
20559;SDS011;10438;51.454;6.718;2022-12-18T01:00:34;14.00;;;6.57;;
20559;SDS011;10438;51.454;6.718;2022-12-18T01:03:00;17.60;;;7.27;;
20559;SDS011;10438;51.454;6.718;2022-12-18T01:05:26;16.17;;;6.13;;
20559;SDS011;10438;51.454;6.718;2022-12-18T01:07:52;13.33;;;6.13;;
20559;SDS011;10438;51.454;6.718;2022-12-18T01:10:17;15.17;;;6.40;;
20559;SDS011;10438;51.454;6.718;2022-12-18T01:12:43;17.57;;;6.87;;
20559;SDS011;10438;51.454;6.718;2022-12-18T01:15:09;14.97;;;6.47;;
20559;SDS011;10438;51.454;6.718;2022-12-18T01:17:36;15.17;;;6.17;;
20559;SDS011;10438;51.454;6.718;2022-12-18T01:20:02;13.87;;;6.57;;
20559;SDS011;10438;51.454;6.718;2022-12-18T01:22:28;14.43;;;6.63;;
20559;SDS011;10438;51.454;6.718;2022-12-18T01:24:53;14.83;;;6.67;;
20559;SDS011;10438;51.454;6.718;2022-12-18T01:27:19;14.80;;;6.43;;
20559;SDS011;10438;51.454;6.718;2022-12-18T01:29:45;15.17;;;6.40;;
20559;SDS011;10438;51.454;6.718;2022-12-18T01:32:10;13.47;;;6.00;;
20559;SDS011;10438;51.454;6.718;2022-12-18T01:34:36;12.83;;;6.37;;
20559;SDS011;10438;51.454;6.718;2022-12-18T01:37:05;15.00;;;5.77;;
20559;SDS011;10438;51.454;6.718;2022-12-18T01:39:31;13.93;;;5.57;;
20559;SDS011;10438;51.454;6.718;2022-12-18T01:41:57;15.57;;;7.03;;
20559;SDS011;10438;51.454;6.718;2022-12-18T01:47:40;12.50;;;5.53;;
20559;SDS011;10438;51.454;6.718;2022-12-18T01:52:50;12.73;;;5.53;;
20559;SDS011;10438;51.454;6.718;2022-12-18T01:55:19;15.80;;;6.53;;
20559;SDS011;10438;51.454;6.718;2022-12-18T01:57:49;12.07;;;5.43;;
20559;SDS011;10438;51.454;6.718;2022-12-18T02:00:18;13.27;;;5.60;;
20559;SDS011;10438;51.454;6.718;2022-12-18T02:02:45;14.13;;;6.00;;
20559;SDS011;10438;51.454;6.718;2022-12-18T02:05:12;14.13;;;6.20;;
20559;SDS011;10438;51.454;6.718;2022-12-18T02:10:36;14.13;;;5.93;;
20559;SDS011;10438;51.454;6.718;2022-12-18T02:18:49;13.60;;;5.57;;
20559;SDS011;10438;51.454;6.718;2022-12-18T02:21:23;13.90;;;6.17;;
20559;SDS011;10438;51.454;6.718;2022-12-18T02:26:50;12.63;;;5.83;;
20559;SDS011;10438;51.454;6.718;2022-12-18T02:29:21;14.27;;;6.13;;
20559;SDS011;10438;51.454;6.718;2022-12-18T02:31:52;13.83;;;6.00;;
20559;SDS011;10438;51.454;6.718;2022-12-18T02:34:22;14.80;;;6.00;;
20559;SDS011;10438;51.454;6.718;2022-12-18T02:36:51;13.53;;;5.93;;
20559;SDS011;10438;51.454;6.718;2022-12-18T02:39:19;12.27;;;6.20;;
20559;SDS011;10438;51.454;6.718;2022-12-18T02:41:46;14.67;;;5.97;;
20559;SDS011;10438;51.454;6.718;2022-12-18T02:44:13;14.40;;;5.87;;
20559;SDS011;10438;51.454;6.718;2022-12-18T02:46:40;15.03;;;6.60;;
20559;SDS011;10438;51.454;6.718;2022-12-18T02:49:12;12.23;;;5.70;;
20559;SDS011;10438;51.454;6.718;2022-12-18T03:00:01;15.37;;;6.50;;
20559;SDS011;10438;51.454;6.718;2022-12-18T03:02:44;17.20;;;6.97;;
20559;SDS011;10438;51.454;6.718;2022-12-18T03:05:22;13.60;;;6.00;;
20559;SDS011;10438;51.454;6.718;2022-12-18T03:07:56;15.57;;;5.90;;
20559;SDS011;10438;51.454;6.718;2022-12-18T03:10:30;14.33;;;6.20;;
20559;SDS011;10438;51.454;6.718;2022-12-18T03:13:03;12.87;;;6.27;;
20559;SDS011;10438;51.454;6.718;2022-12-18T03:15:35;14.17;;;6.13;;
20559;SDS011;10438;51.454;6.718;2022-12-18T03:18:04;13.40;;;5.30;;
20559;SDS011;10438;51.454;6.718;2022-12-18T03:20:35;15.77;;;6.30;;
20559;SDS011;10438;51.454;6.718;2022-12-18T03:23:07;15.47;;;6.53;;
20559;SDS011;10438;51.454;6.718;2022-12-18T03:25:37;14.13;;;6.13;;
20559;SDS011;10438;51.454;6.718;2022-12-18T03:28:07;15.80;;;6.67;;
20559;SDS011;10438;51.454;6.718;2022-12-18T03:30:37;13.57;;;6.07;;
20559;SDS011;10438;51.454;6.718;2022-12-18T03:33:07;13.33;;;6.13;;
20559;SDS011;10438;51.454;6.718;2022-12-18T03:35:46;15.37;;;6.33;;
20559;SDS011;10438;51.454;6.718;2022-12-18T03:38:12;13.97;;;6.17;;
20559;SDS011;10438;51.454;6.718;2022-12-18T03:40:59;14.73;;;6.90;;
20559;SDS011;10438;51.454;6.718;2022-12-18T03:46:38;12.00;;;5.53;;
20559;SDS011;10438;51.454;6.718;2022-12-18T03:49:31;16.23;;;6.40;;
20559;SDS011;10438;51.454;6.718;2022-12-18T03:55:21;12.47;;;5.47;;
20559;SDS011;10438;51.454;6.718;2022-12-18T03:57:49;13.77;;;6.00;;
20559;SDS011;10438;51.454;6.718;2022-12-18T04:00:17;14.20;;;5.90;;
20559;SDS011;10438;51.454;6.718;2022-12-18T04:02:53;14.13;;;5.87;;
20559;SDS011;10438;51.454;6.718;2022-12-18T04:05:20;11.57;;;5.60;;
20559;SDS011;10438;51.454;6.718;2022-12-18T04:07:49;13.10;;;5.27;;
20559;SDS011;10438;51.454;6.718;2022-12-18T04:10:16;11.20;;;5.07;;
20559;SDS011;10438;51.454;6.718;2022-12-18T04:12:43;10.77;;;4.53;;
20559;SDS011;10438;51.454;6.718;2022-12-18T04:15:09;12.73;;;5.40;;
20559;SDS011;10438;51.454;6.718;2022-12-18T04:17:35;12.83;;;5.00;;
20559;SDS011;10438;51.454;6.718;2022-12-18T04:20:01;12.60;;;5.73;;
20559;SDS011;10438;51.454;6.718;2022-12-18T04:22:27;12.57;;;5.30;;
20559;SDS011;10438;51.454;6.718;2022-12-18T04:24:52;10.80;;;5.10;;
20559;SDS011;10438;51.454;6.718;2022-12-18T04:27:18;14.20;;;5.20;;
20559;SDS011;10438;51.454;6.718;2022-12-18T04:29:43;10.03;;;4.83;;
20559;SDS011;10438;51.454;6.718;2022-12-18T04:32:09;10.93;;;4.60;;
20559;SDS011;10438;51.454;6.718;2022-12-18T04:34:34;11.13;;;5.23;;
20559;SDS011;10438;51.454;6.718;2022-12-18T04:37:00;10.50;;;4.60;;
20559;SDS011;10438;51.454;6.718;2022-12-18T04:39:25;14.40;;;4.87;;
20559;SDS011;10438;51.454;6.718;2022-12-18T04:41:51;9.37;;;5.10;;
20559;SDS011;10438;51.454;6.718;2022-12-18T04:44:17;9.60;;;4.80;;
20559;SDS011;10438;51.454;6.718;2022-12-18T04:46:42;10.23;;;5.17;;
20559;SDS011;10438;51.454;6.718;2022-12-18T04:49:08;12.47;;;5.17;;
20559;SDS011;10438;51.454;6.718;2022-12-18T04:51:35;11.50;;;4.90;;
20559;SDS011;10438;51.454;6.718;2022-12-18T04:54:01;12.03;;;5.43;;
20559;SDS011;10438;51.454;6.718;2022-12-18T04:56:27;13.33;;;5.57;;
20559;SDS011;10438;51.454;6.718;2022-12-18T04:58:52;11.27;;;5.33;;
20559;SDS011;10438;51.454;6.718;2022-12-18T05:01:18;10.60;;;5.17;;
20559;SDS011;10438;51.454;6.718;2022-12-18T05:03:43;12.07;;;4.97;;
20559;SDS011;10438;51.454;6.718;2022-12-18T05:06:09;15.53;;;5.53;;
20559;SDS011;10438;51.454;6.718;2022-12-18T05:08:35;12.43;;;5.13;;
20559;SDS011;10438;51.454;6.718;2022-12-18T05:11:05;12.03;;;5.17;;
20559;SDS011;10438;51.454;6.718;2022-12-18T05:13:32;10.33;;;4.70;;
20559;SDS011;10438;51.454;6.718;2022-12-18T05:15:58;11.57;;;5.50;;
20559;SDS011;10438;51.454;6.718;2022-12-18T05:18:24;14.30;;;5.13;;
20559;SDS011;10438;51.454;6.718;2022-12-18T05:20:50;11.23;;;5.23;;
20559;SDS011;10438;51.454;6.718;2022-12-18T05:23:17;10.73;;;5.30;;
20559;SDS011;10438;51.454;6.718;2022-12-18T05:25:46;11.53;;;4.97;;
20559;SDS011;10438;51.454;6.718;2022-12-18T05:28:25;11.57;;;5.23;;
20559;SDS011;10438;51.454;6.718;2022-12-18T05:30:53;11.77;;;5.33;;
20559;SDS011;10438;51.454;6.718;2022-12-18T05:33:21;9.60;;;4.87;;
20559;SDS011;10438;51.454;6.718;2022-12-18T05:35:54;11.10;;;5.27;;
20559;SDS011;10438;51.454;6.718;2022-12-18T05:38:24;12.23;;;5.60;;
20559;SDS011;10438;51.454;6.718;2022-12-18T05:40:51;9.97;;;4.87;;
20559;SDS011;10438;51.454;6.718;2022-12-18T05:43:17;12.73;;;5.13;;
20559;SDS011;10438;51.454;6.718;2022-12-18T05:45:45;10.40;;;5.00;;
20559;SDS011;10438;51.454;6.718;2022-12-18T05:48:10;13.20;;;5.00;;
20559;SDS011;10438;51.454;6.718;2022-12-18T05:50:36;11.60;;;5.30;;
20559;SDS011;10438;51.454;6.718;2022-12-18T05:53:03;10.20;;;4.60;;
20559;SDS011;10438;51.454;6.718;2022-12-18T05:55:32;10.17;;;4.37;;
20559;SDS011;10438;51.454;6.718;2022-12-18T05:57:58;12.57;;;4.67;;
20559;SDS011;10438;51.454;6.718;2022-12-18T06:00:24;9.70;;;4.07;;
20559;SDS011;10438;51.454;6.718;2022-12-18T06:02:50;8.87;;;4.27;;
20559;SDS011;10438;51.454;6.718;2022-12-18T06:05:16;7.93;;;3.93;;
20559;SDS011;10438;51.454;6.718;2022-12-18T06:07:41;11.57;;;4.80;;
20559;SDS011;10438;51.454;6.718;2022-12-18T06:10:07;8.50;;;3.60;;
20559;SDS011;10438;51.454;6.718;2022-12-18T06:12:33;10.13;;;4.50;;
20559;SDS011;10438;51.454;6.718;2022-12-18T06:14:58;11.40;;;4.30;;
20559;SDS011;10438;51.454;6.718;2022-12-18T06:17:28;13.27;;;4.37;;
20559;SDS011;10438;51.454;6.718;2022-12-18T06:19:54;10.00;;;4.20;;
20559;SDS011;10438;51.454;6.718;2022-12-18T06:22:20;11.50;;;4.43;;
20559;SDS011;10438;51.454;6.718;2022-12-18T06:24:46;12.00;;;4.20;;
20559;SDS011;10438;51.454;6.718;2022-12-18T06:27:11;9.27;;;4.13;;
20559;SDS011;10438;51.454;6.718;2022-12-18T06:29:37;10.23;;;4.23;;
20559;SDS011;10438;51.454;6.718;2022-12-18T06:32:03;10.80;;;4.43;;
20559;SDS011;10438;51.454;6.718;2022-12-18T06:34:28;9.50;;;4.30;;
20559;SDS011;10438;51.454;6.718;2022-12-18T06:36:55;8.73;;;3.73;;
20559;SDS011;10438;51.454;6.718;2022-12-18T06:39:21;10.37;;;4.10;;
20559;SDS011;10438;51.454;6.718;2022-12-18T06:41:46;9.07;;;4.40;;
20559;SDS011;10438;51.454;6.718;2022-12-18T06:44:12;12.33;;;4.43;;
20559;SDS011;10438;51.454;6.718;2022-12-18T06:46:37;11.10;;;4.60;;
20559;SDS011;10438;51.454;6.718;2022-12-18T06:49:03;13.03;;;4.70;;
20559;SDS011;10438;51.454;6.718;2022-12-18T06:51:29;12.37;;;4.37;;
20559;SDS011;10438;51.454;6.718;2022-12-18T06:53:54;10.13;;;4.53;;
20559;SDS011;10438;51.454;6.718;2022-12-18T06:56:20;9.07;;;4.43;;
20559;SDS011;10438;51.454;6.718;2022-12-18T06:58:45;12.07;;;5.33;;
20559;SDS011;10438;51.454;6.718;2022-12-18T07:01:11;13.33;;;4.90;;
20559;SDS011;10438;51.454;6.718;2022-12-18T07:03:38;8.10;;;4.07;;
20559;SDS011;10438;51.454;6.718;2022-12-18T07:06:04;11.07;;;4.57;;
20559;SDS011;10438;51.454;6.718;2022-12-18T07:08:31;11.43;;;4.60;;
20559;SDS011;10438;51.454;6.718;2022-12-18T07:10:57;10.47;;;4.80;;
20559;SDS011;10438;51.454;6.718;2022-12-18T07:13:22;9.90;;;4.30;;
20559;SDS011;10438;51.454;6.718;2022-12-18T07:15:48;12.27;;;5.40;;
20559;SDS011;10438;51.454;6.718;2022-12-18T07:18:14;10.80;;;4.40;;
20559;SDS011;10438;51.454;6.718;2022-12-18T07:20:42;12.60;;;4.90;;
20559;SDS011;10438;51.454;6.718;2022-12-18T07:23:07;11.87;;;4.77;;
20559;SDS011;10438;51.454;6.718;2022-12-18T07:25:34;10.53;;;4.77;;
20559;SDS011;10438;51.454;6.718;2022-12-18T07:28:00;10.57;;;4.57;;
20559;SDS011;10438;51.454;6.718;2022-12-18T07:30:26;12.43;;;5.13;;
20559;SDS011;10438;51.454;6.718;2022-12-18T07:32:51;12.37;;;4.83;;
20559;SDS011;10438;51.454;6.718;2022-12-18T07:35:17;12.30;;;5.50;;
20559;SDS011;10438;51.454;6.718;2022-12-18T07:37:43;10.90;;;5.17;;
20559;SDS011;10438;51.454;6.718;2022-12-18T07:40:09;9.60;;;4.40;;
20559;SDS011;10438;51.454;6.718;2022-12-18T07:42:35;11.60;;;5.07;;
20559;SDS011;10438;51.454;6.718;2022-12-18T07:45:01;11.43;;;4.47;;
20559;SDS011;10438;51.454;6.718;2022-12-18T07:47:28;10.17;;;4.47;;
20559;SDS011;10438;51.454;6.718;2022-12-18T07:49:53;11.93;;;5.43;;
20559;SDS011;10438;51.454;6.718;2022-12-18T07:52:19;10.13;;;4.93;;
20559;SDS011;10438;51.454;6.718;2022-12-18T07:54:45;11.53;;;5.10;;
20559;SDS011;10438;51.454;6.718;2022-12-18T07:57:15;9.60;;;4.40;;
20559;SDS011;10438;51.454;6.718;2022-12-18T07:59:41;13.10;;;5.03;;
20559;SDS011;10438;51.454;6.718;2022-12-18T08:02:07;11.87;;;4.10;;
20559;SDS011;10438;51.454;6.718;2022-12-18T08:04:33;11.10;;;4.67;;
20559;SDS011;10438;51.454;6.718;2022-12-18T08:06:59;12.03;;;5.13;;
20559;SDS011;10438;51.454;6.718;2022-12-18T08:09:25;11.10;;;5.27;;
20559;SDS011;10438;51.454;6.718;2022-12-18T08:11:50;9.70;;;4.60;;
20559;SDS011;10438;51.454;6.718;2022-12-18T08:14:16;12.57;;;5.60;;
20559;SDS011;10438;51.454;6.718;2022-12-18T08:16:41;9.30;;;4.30;;
20559;SDS011;10438;51.454;6.718;2022-12-18T08:19:07;11.13;;;4.87;;
20559;SDS011;10438;51.454;6.718;2022-12-18T08:21:35;12.43;;;4.70;;
20559;SDS011;10438;51.454;6.718;2022-12-18T08:24:02;11.20;;;4.53;;
20559;SDS011;10438;51.454;6.718;2022-12-18T08:26:30;12.20;;;5.20;;
20559;SDS011;10438;51.454;6.718;2022-12-18T08:28:56;13.00;;;4.50;;
20559;SDS011;10438;51.454;6.718;2022-12-18T08:31:24;12.60;;;5.20;;
20559;SDS011;10438;51.454;6.718;2022-12-18T08:33:52;12.60;;;4.47;;
20559;SDS011;10438;51.454;6.718;2022-12-18T08:36:18;10.43;;;4.87;;
20559;SDS011;10438;51.454;6.718;2022-12-18T08:38:44;10.03;;;4.83;;
20559;SDS011;10438;51.454;6.718;2022-12-18T08:41:11;11.47;;;4.60;;
20559;SDS011;10438;51.454;6.718;2022-12-18T08:43:38;15.07;;;4.50;;
20559;SDS011;10438;51.454;6.718;2022-12-18T08:46:23;11.60;;;5.20;;
20559;SDS011;10438;51.454;6.718;2022-12-18T08:48:50;9.33;;;4.40;;
20559;SDS011;10438;51.454;6.718;2022-12-18T08:51:16;12.73;;;4.70;;
20559;SDS011;10438;51.454;6.718;2022-12-18T08:53:42;14.73;;;5.23;;
20559;SDS011;10438;51.454;6.718;2022-12-18T08:56:09;11.50;;;4.80;;
20559;SDS011;10438;51.454;6.718;2022-12-18T08:58:35;12.63;;;4.53;;
20559;SDS011;10438;51.454;6.718;2022-12-18T09:01:01;9.67;;;4.53;;
20559;SDS011;10438;51.454;6.718;2022-12-18T09:03:28;11.87;;;5.10;;
20559;SDS011;10438;51.454;6.718;2022-12-18T09:05:54;11.73;;;5.17;;
20559;SDS011;10438;51.454;6.718;2022-12-18T09:08:19;11.17;;;4.73;;
20559;SDS011;10438;51.454;6.718;2022-12-18T09:10:45;10.33;;;4.30;;
20559;SDS011;10438;51.454;6.718;2022-12-18T09:13:12;10.43;;;4.90;;
20559;SDS011;10438;51.454;6.718;2022-12-18T09:15:50;13.20;;;5.10;;
20559;SDS011;10438;51.454;6.718;2022-12-18T09:18:17;9.73;;;4.53;;
20559;SDS011;10438;51.454;6.718;2022-12-18T09:20:44;10.67;;;4.73;;
20559;SDS011;10438;51.454;6.718;2022-12-18T09:23:10;9.87;;;4.73;;
20559;SDS011;10438;51.454;6.718;2022-12-18T09:25:36;11.00;;;5.00;;
20559;SDS011;10438;51.454;6.718;2022-12-18T09:28:04;14.47;;;5.93;;
20559;SDS011;10438;51.454;6.718;2022-12-18T09:30:31;12.03;;;5.53;;
20559;SDS011;10438;51.454;6.718;2022-12-18T09:33:00;9.80;;;4.90;;
20559;SDS011;10438;51.454;6.718;2022-12-18T09:35:25;11.10;;;5.23;;
20559;SDS011;10438;51.454;6.718;2022-12-18T09:37:53;11.97;;;4.70;;
20559;SDS011;10438;51.454;6.718;2022-12-18T09:40:19;12.00;;;4.43;;
20559;SDS011;10438;51.454;6.718;2022-12-18T09:42:50;10.43;;;4.87;;
20559;SDS011;10438;51.454;6.718;2022-12-18T09:45:20;12.47;;;4.70;;
20559;SDS011;10438;51.454;6.718;2022-12-18T09:47:47;9.97;;;4.57;;
20559;SDS011;10438;51.454;6.718;2022-12-18T09:52:55;10.23;;;4.60;;
20559;SDS011;10438;51.454;6.718;2022-12-18T09:55:36;10.93;;;5.20;;
20559;SDS011;10438;51.454;6.718;2022-12-18T09:58:10;11.10;;;4.40;;
20559;SDS011;10438;51.454;6.718;2022-12-18T10:00:38;9.73;;;4.47;;
20559;SDS011;10438;51.454;6.718;2022-12-18T10:03:08;12.13;;;5.03;;
20559;SDS011;10438;51.454;6.718;2022-12-18T10:13:59;9.97;;;4.57;;
20559;SDS011;10438;51.454;6.718;2022-12-18T10:22:28;11.63;;;4.73;;
20559;SDS011;10438;51.454;6.718;2022-12-18T10:27:43;12.27;;;4.73;;
20559;SDS011;10438;51.454;6.718;2022-12-18T10:30:13;13.13;;;4.73;;
20559;SDS011;10438;51.454;6.718;2022-12-18T10:32:41;16.17;;;5.13;;
20559;SDS011;10438;51.454;6.718;2022-12-18T10:35:14;11.87;;;5.30;;
20559;SDS011;10438;51.454;6.718;2022-12-18T10:38:50;11.03;;;5.10;;
20559;SDS011;10438;51.454;6.718;2022-12-18T10:40:58;11.37;;;5.30;;
20559;SDS011;10438;51.454;6.718;2022-12-18T10:43:26;11.73;;;5.60;;
20559;SDS011;10438;51.454;6.718;2022-12-18T10:46:00;11.43;;;5.50;;
20559;SDS011;10438;51.454;6.718;2022-12-18T10:48:33;13.13;;;5.40;;
20559;SDS011;10438;51.454;6.718;2022-12-18T10:51:05;10.63;;;5.10;;
20559;SDS011;10438;51.454;6.718;2022-12-18T10:53:33;11.80;;;5.23;;
20559;SDS011;10438;51.454;6.718;2022-12-18T10:56:00;12.33;;;5.10;;
20559;SDS011;10438;51.454;6.718;2022-12-18T10:58:37;10.57;;;5.20;;
20559;SDS011;10438;51.454;6.718;2022-12-18T11:01:16;11.13;;;5.00;;
20559;SDS011;10438;51.454;6.718;2022-12-18T11:03:45;13.43;;;5.30;;
20559;SDS011;10438;51.454;6.718;2022-12-18T11:06:33;10.00;;;5.03;;
20559;SDS011;10438;51.454;6.718;2022-12-18T11:09:05;10.00;;;4.90;;
20559;SDS011;10438;51.454;6.718;2022-12-18T11:11:48;11.97;;;5.13;;
20559;SDS011;10438;51.454;6.718;2022-12-18T11:15:00;10.97;;;4.90;;
20559;SDS011;10438;51.454;6.718;2022-12-18T11:17:33;16.13;;;5.17;;
20559;SDS011;10438;51.454;6.718;2022-12-18T11:20:01;11.20;;;5.20;;
20559;SDS011;10438;51.454;6.718;2022-12-18T11:22:33;11.63;;;5.00;;
20559;SDS011;10438;51.454;6.718;2022-12-18T11:27:26;10.63;;;5.30;;
20559;SDS011;10438;51.454;6.718;2022-12-18T11:30:06;12.20;;;5.30;;
20559;SDS011;10438;51.454;6.718;2022-12-18T11:32:47;12.40;;;5.57;;
20559;SDS011;10438;51.454;6.718;2022-12-18T11:35:17;12.17;;;5.27;;
20559;SDS011;10438;51.454;6.718;2022-12-18T11:37:49;10.87;;;5.30;;
20559;SDS011;10438;51.454;6.718;2022-12-18T11:40:24;12.10;;;5.23;;
20559;SDS011;10438;51.454;6.718;2022-12-18T11:43:10;15.07;;;4.93;;
20559;SDS011;10438;51.454;6.718;2022-12-18T11:45:43;11.90;;;5.30;;
20559;SDS011;10438;51.454;6.718;2022-12-18T11:48:16;13.53;;;5.73;;
20559;SDS011;10438;51.454;6.718;2022-12-18T11:50:56;12.53;;;5.63;;
20559;SDS011;10438;51.454;6.718;2022-12-18T11:53:27;15.67;;;5.63;;
20559;SDS011;10438;51.454;6.718;2022-12-18T12:03:48;11.83;;;5.73;;
20559;SDS011;10438;51.454;6.718;2022-12-18T12:06:22;12.77;;;5.63;;
20559;SDS011;10438;51.454;6.718;2022-12-18T12:09:13;15.70;;;5.80;;
20559;SDS011;10438;51.454;6.718;2022-12-18T12:20:21;13.30;;;5.60;;
20559;SDS011;10438;51.454;6.718;2022-12-18T12:28:37;13.40;;;5.30;;
20559;SDS011;10438;51.454;6.718;2022-12-18T12:31:21;11.50;;;5.83;;
20559;SDS011;10438;51.454;6.718;2022-12-18T12:34:18;12.10;;;5.73;;
20559;SDS011;10438;51.454;6.718;2022-12-18T12:39:42;13.47;;;7.10;;
20559;SDS011;10438;51.454;6.718;2022-12-18T12:42:29;14.80;;;5.87;;
20559;SDS011;10438;51.454;6.718;2022-12-18T12:45:20;14.17;;;6.77;;
20559;SDS011;10438;51.454;6.718;2022-12-18T12:47:52;14.77;;;6.43;;
20559;SDS011;10438;51.454;6.718;2022-12-18T12:50:20;14.60;;;6.40;;
20559;SDS011;10438;51.454;6.718;2022-12-18T12:52:49;14.50;;;6.27;;
20559;SDS011;10438;51.454;6.718;2022-12-18T12:55:24;14.63;;;6.67;;
20559;SDS011;10438;51.454;6.718;2022-12-18T12:57:56;15.20;;;6.53;;
20559;SDS011;10438;51.454;6.718;2022-12-18T13:00:30;15.33;;;6.77;;
20559;SDS011;10438;51.454;6.718;2022-12-18T13:03:08;23.83;;;7.37;;
20559;SDS011;10438;51.454;6.718;2022-12-18T13:05:46;13.50;;;6.23;;
20559;SDS011;10438;51.454;6.718;2022-12-18T13:08:24;16.60;;;6.80;;
20559;SDS011;10438;51.454;6.718;2022-12-18T13:10:59;17.77;;;6.57;;
20559;SDS011;10438;51.454;6.718;2022-12-18T13:13:51;16.30;;;6.83;;
20559;SDS011;10438;51.454;6.718;2022-12-18T13:16:18;16.77;;;6.77;;
20559;SDS011;10438;51.454;6.718;2022-12-18T13:18:55;16.53;;;7.13;;
20559;SDS011;10438;51.454;6.718;2022-12-18T13:23:53;14.67;;;7.67;;
20559;SDS011;10438;51.454;6.718;2022-12-18T13:28:55;15.43;;;7.20;;
20559;SDS011;10438;51.454;6.718;2022-12-18T13:36:34;16.63;;;8.00;;
20559;SDS011;10438;51.454;6.718;2022-12-18T13:41:44;15.53;;;7.53;;
20559;SDS011;10438;51.454;6.718;2022-12-18T13:46:50;15.97;;;7.70;;
20559;SDS011;10438;51.454;6.718;2022-12-18T13:49:20;16.10;;;7.80;;
20559;SDS011;10438;51.454;6.718;2022-12-18T13:51:48;18.33;;;7.67;;
20559;SDS011;10438;51.454;6.718;2022-12-18T13:57:02;17.80;;;7.70;;
20559;SDS011;10438;51.454;6.718;2022-12-18T13:59:35;16.77;;;8.37;;
20559;SDS011;10438;51.454;6.718;2022-12-18T14:02:17;17.80;;;8.27;;
20559;SDS011;10438;51.454;6.718;2022-12-18T14:04:47;19.43;;;8.80;;
20559;SDS011;10438;51.454;6.718;2022-12-18T14:07:18;17.97;;;8.47;;
20559;SDS011;10438;51.454;6.718;2022-12-18T14:09:56;15.90;;;8.20;;
20559;SDS011;10438;51.454;6.718;2022-12-18T14:12:25;20.30;;;8.57;;
20559;SDS011;10438;51.454;6.718;2022-12-18T14:20:45;20.23;;;8.63;;
20559;SDS011;10438;51.454;6.718;2022-12-18T14:23:29;22.17;;;8.97;;
20559;SDS011;10438;51.454;6.718;2022-12-18T14:25:57;15.73;;;7.23;;
20559;SDS011;10438;51.454;6.718;2022-12-18T14:28:23;20.23;;;8.90;;
20559;SDS011;10438;51.454;6.718;2022-12-18T14:30:50;20.63;;;8.33;;
20559;SDS011;10438;51.454;6.718;2022-12-18T14:33:34;21.27;;;9.33;;
20559;SDS011;10438;51.454;6.718;2022-12-18T14:36:04;21.37;;;9.00;;
20559;SDS011;10438;51.454;6.718;2022-12-18T14:38:31;19.17;;;8.67;;
20559;SDS011;10438;51.454;6.718;2022-12-18T14:43:36;28.70;;;9.90;;
20559;SDS011;10438;51.454;6.718;2022-12-18T14:46:03;23.97;;;8.67;;
20559;SDS011;10438;51.454;6.718;2022-12-18T14:48:33;24.57;;;10.07;;
20559;SDS011;10438;51.454;6.718;2022-12-18T14:51:05;20.47;;;9.13;;
20559;SDS011;10438;51.454;6.718;2022-12-18T14:53:42;21.23;;;9.60;;
20559;SDS011;10438;51.454;6.718;2022-12-18T14:56:17;19.93;;;8.90;;
20559;SDS011;10438;51.454;6.718;2022-12-18T14:58:48;19.07;;;8.97;;
20559;SDS011;10438;51.454;6.718;2022-12-18T15:01:20;19.30;;;9.97;;
20559;SDS011;10438;51.454;6.718;2022-12-18T15:03:50;21.20;;;9.10;;
20559;SDS011;10438;51.454;6.718;2022-12-18T15:08:53;19.73;;;9.23;;
20559;SDS011;10438;51.454;6.718;2022-12-18T15:17:25;20.40;;;9.23;;
20559;SDS011;10438;51.454;6.718;2022-12-18T15:19:51;24.70;;;10.20;;
20559;SDS011;10438;51.454;6.718;2022-12-18T15:22:19;19.43;;;9.00;;
20559;SDS011;10438;51.454;6.718;2022-12-18T15:24:47;24.90;;;10.20;;
20559;SDS011;10438;51.454;6.718;2022-12-18T15:32:30;29.60;;;10.47;;
20559;SDS011;10438;51.454;6.718;2022-12-18T15:37:54;20.93;;;10.33;;
20559;SDS011;10438;51.454;6.718;2022-12-18T15:40:21;21.77;;;10.20;;
20559;SDS011;10438;51.454;6.718;2022-12-18T15:42:47;21.30;;;9.80;;
20559;SDS011;10438;51.454;6.718;2022-12-18T15:45:34;22.07;;;10.73;;
20559;SDS011;10438;51.454;6.718;2022-12-18T15:48:42;24.67;;;11.23;;
20559;SDS011;10438;51.454;6.718;2022-12-18T15:50:52;25.97;;;10.63;;
20559;SDS011;10438;51.454;6.718;2022-12-18T15:53:23;20.13;;;9.57;;
20559;SDS011;10438;51.454;6.718;2022-12-18T15:55:51;21.57;;;10.40;;
20559;SDS011;10438;51.454;6.718;2022-12-18T15:58:35;19.33;;;9.97;;
20559;SDS011;10438;51.454;6.718;2022-12-18T16:01:01;24.27;;;10.83;;
20559;SDS011;10438;51.454;6.718;2022-12-18T16:03:27;22.13;;;11.07;;
20559;SDS011;10438;51.454;6.718;2022-12-18T16:05:53;24.13;;;11.27;;
20559;SDS011;10438;51.454;6.718;2022-12-18T16:08:20;23.00;;;10.53;;
20559;SDS011;10438;51.454;6.718;2022-12-18T16:10:45;24.27;;;11.27;;
20559;SDS011;10438;51.454;6.718;2022-12-18T16:13:11;25.00;;;11.30;;
20559;SDS011;10438;51.454;6.718;2022-12-18T16:15:40;26.53;;;11.17;;
20559;SDS011;10438;51.454;6.718;2022-12-18T16:18:06;21.53;;;11.03;;
20559;SDS011;10438;51.454;6.718;2022-12-18T16:20:31;24.20;;;11.30;;
20559;SDS011;10438;51.454;6.718;2022-12-18T16:22:57;22.90;;;10.80;;
20559;SDS011;10438;51.454;6.718;2022-12-18T16:25:23;23.17;;;11.77;;
20559;SDS011;10438;51.454;6.718;2022-12-18T16:27:52;28.13;;;11.70;;
20559;SDS011;10438;51.454;6.718;2022-12-18T16:30:20;22.23;;;11.23;;
20559;SDS011;10438;51.454;6.718;2022-12-18T16:32:48;25.30;;;12.47;;
20559;SDS011;10438;51.454;6.718;2022-12-18T16:35:14;23.77;;;11.07;;
20559;SDS011;10438;51.454;6.718;2022-12-18T16:37:41;22.63;;;11.57;;
20559;SDS011;10438;51.454;6.718;2022-12-18T16:40:08;25.00;;;11.20;;
20559;SDS011;10438;51.454;6.718;2022-12-18T16:42:36;25.93;;;11.27;;
20559;SDS011;10438;51.454;6.718;2022-12-18T16:45:03;28.57;;;12.83;;
20559;SDS011;10438;51.454;6.718;2022-12-18T16:47:29;30.13;;;12.30;;
20559;SDS011;10438;51.454;6.718;2022-12-18T16:49:55;21.67;;;11.90;;